PWSweather.com
Personal Weather Stations
Station Observations
KWABLAIN13
Ptl Weather, Blaine, WA

Ptl WeatherBlaine, WA

Lat: 48.997393, Lon: -122.748614

Elevation: 57

Station Type: Davis Advantage Pro 2

http://www.ptlnet.net

High Low Average
Temperature 69.1°F20.6°C 55.3°F12.9°C 61.9°F16.6°C
Dew Point 57.4°F14.1°C 51.5°F10.8°C 54.6°F12.6°C
Winds 11.0 mph 17.7 kmh Calm Calm 5.0 mph SSE8.0 kmh SSE
Wind Gusts 12.0 mph19.3 kmh 1.0 mph1.6 kmh 8.0 mph12.9 kmh
Humidity 89% 65% 77%
Pressure 30.14 in1020.7 mb 30.07 in1018.3 mb -
Precipitation 0.00 in0.0 mm - -
Hour Temp Dew Point Humidity Winds Wind Gusts Pressure Precip Precip Rate Daily Precip Total
12:05 AM 58.7°F14.8°C 52.2°F11.2°C 79% 3.0 mph SSE4.8 kmh SSE 4.0 mph6.4 kmh 30.08 in1018.6 mb 0.00 in0.0 mm 0.00 in0.0 mm 0.00 in0.0 mm
12:09 AM 58.6°F14.8°C 52.5°F11.4°C 80% 2.0 mph SSE3.2 kmh SSE 4.0 mph6.4 kmh 30.08 in1018.6 mb 0.00 in0.0 mm 0.00 in0.0 mm 0.00 in0.0 mm
12:25 AM 60.2°F15.7°C 54.0°F12.2°C 80% 4.0 mph SE6.4 kmh SE 5.0 mph8.0 kmh 30.07 in1018.3 mb 0.00 in0.0 mm 0.00 in0.0 mm 0.00 in0.0 mm
12:30 AM 60.0°F15.6°C 53.8°F12.1°C 80% 2.0 mph SE3.2 kmh SE 2.0 mph3.2 kmh 30.07 in1018.3 mb 0.00 in0.0 mm 0.00 in0.0 mm 0.00 in0.0 mm
12:45 AM 59.7°F15.4°C 53.5°F11.9°C 80% 3.0 mph SE4.8 kmh SE 5.0 mph8.0 kmh 30.08 in1018.6 mb 0.00 in0.0 mm 0.00 in0.0 mm 0.00 in0.0 mm
12:50 AM 59.5°F15.3°C 53.7°F12.1°C 81% 3.0 mph ESE4.8 kmh ESE 6.0 mph9.7 kmh 30.07 in1018.3 mb 0.00 in0.0 mm 0.00 in0.0 mm 0.00 in0.0 mm
01:05 AM 59.1°F15.1°C 53.6°F12.0°C 82% 6.0 mph SE9.7 kmh SE 8.0 mph12.9 kmh 30.07 in1018.3 mb 0.00 in0.0 mm 0.00 in0.0 mm 0.00 in0.0 mm
01:10 AM 59.0°F15.0°C 53.5°F11.9°C 82% 7.0 mph SE11.3 kmh SE 8.0 mph12.9 kmh 30.08 in1018.6 mb 0.00 in0.0 mm 0.00 in0.0 mm 0.00 in0.0 mm
01:25 AM 58.9°F14.9°C 53.8°F12.1°C 83% 5.0 mph SE8.0 kmh SE 8.0 mph12.9 kmh 30.07 in1018.3 mb 0.00 in0.0 mm 0.00 in0.0 mm 0.00 in0.0 mm
01:30 AM 58.9°F14.9°C 53.8°F12.1°C 83% 4.0 mph SE6.4 kmh SE 8.0 mph12.9 kmh 30.07 in1018.3 mb 0.00 in0.0 mm 0.00 in0.0 mm 0.00 in0.0 mm
01:45 AM 56.8°F13.8°C 52.0°F11.1°C 84% 2.0 mph SE3.2 kmh SE 6.0 mph9.7 kmh 30.07 in1018.3 mb 0.00 in0.0 mm 0.00 in0.0 mm 0.00 in0.0 mm
01:49 AM 56.7°F13.7°C 51.9°F11.1°C 84% Calm Calm 6.0 mph9.7 kmh 30.07 in1018.3 mb 0.00 in0.0 mm 0.00 in0.0 mm 0.00 in0.0 mm
02:05 AM 56.3°F13.5°C 51.9°F11.1°C 85% 1.0 mph SE1.6 kmh SE 7.0 mph11.3 kmh 30.08 in1018.6 mb 0.00 in0.0 mm 0.00 in0.0 mm 0.00 in0.0 mm
02:10 AM 56.3°F13.5°C 51.9°F11.1°C 85% 2.0 mph SSE3.2 kmh SSE 7.0 mph11.3 kmh 30.08 in1018.6 mb 0.00 in0.0 mm 0.00 in0.0 mm 0.00 in0.0 mm
02:25 AM 56.1°F13.4°C 51.7°F10.9°C 85% 2.0 mph S3.2 kmh S 5.0 mph8.0 kmh 30.08 in1018.6 mb 0.00 in0.0 mm 0.00 in0.0 mm 0.00 in0.0 mm
02:30 AM 56.0°F13.3°C 51.6°F10.9°C 85% 1.0 mph SSE1.6 kmh SSE 5.0 mph8.0 kmh 30.08 in1018.6 mb 0.00 in0.0 mm 0.00 in0.0 mm 0.00 in0.0 mm
02:45 AM 55.8°F13.2°C 51.7°F10.9°C 86% 2.0 mph SSE3.2 kmh SSE 4.0 mph6.4 kmh 30.08 in1018.6 mb 0.00 in0.0 mm 0.00 in0.0 mm 0.00 in0.0 mm
02:50 AM 55.8°F13.2°C 51.7°F10.9°C 86% Calm Calm 1.0 mph1.6 kmh 30.08 in1018.6 mb 0.00 in0.0 mm 0.00 in0.0 mm 0.00 in0.0 mm
03:05 AM 55.6°F13.1°C 51.5°F10.8°C 86% 3.0 mph SE4.8 kmh SE 6.0 mph9.7 kmh 30.08 in1018.6 mb 0.00 in0.0 mm 0.00 in0.0 mm 0.00 in0.0 mm
03:10 AM 55.6°F13.1°C 51.8°F11.0°C 87% 6.0 mph SE9.7 kmh SE 6.0 mph9.7 kmh 30.08 in1018.6 mb 0.00 in0.0 mm 0.00 in0.0 mm 0.00 in0.0 mm
03:25 AM 55.5°F13.1°C 51.7°F10.9°C 87% 4.0 mph SE6.4 kmh SE 5.0 mph8.0 kmh 30.08 in1018.6 mb 0.00 in0.0 mm 0.00 in0.0 mm 0.00 in0.0 mm
03:29 AM 55.5°F13.1°C 51.7°F10.9°C 87% 3.0 mph SE4.8 kmh SE 6.0 mph9.7 kmh 30.08 in1018.6 mb 0.00 in0.0 mm 0.00 in0.0 mm 0.00 in0.0 mm
03:45 AM 55.4°F13.0°C 51.9°F11.1°C 88% 5.0 mph SE8.0 kmh SE 6.0 mph9.7 kmh 30.08 in1018.6 mb 0.00 in0.0 mm 0.00 in0.0 mm 0.00 in0.0 mm
03:50 AM 55.4°F13.0°C 51.9°F11.1°C 88% 6.0 mph SE9.7 kmh SE 6.0 mph9.7 kmh 30.08 in1018.6 mb 0.00 in0.0 mm 0.00 in0.0 mm 0.00 in0.0 mm
04:05 AM 55.3°F12.9°C 51.8°F11.0°C 88% 8.0 mph SE12.9 kmh SE 8.0 mph12.9 kmh 30.08 in1018.6 mb 0.00 in0.0 mm 0.00 in0.0 mm 0.00 in0.0 mm
04:09 AM 55.3°F12.9°C 51.8°F11.0°C 88% 5.0 mph SE8.0 kmh SE 8.0 mph12.9 kmh 30.08 in1018.6 mb 0.00 in0.0 mm 0.00 in0.0 mm 0.00 in0.0 mm
04:25 AM 55.3°F12.9°C 51.8°F11.0°C 88% 4.0 mph SE6.4 kmh SE 9.0 mph14.5 kmh 30.09 in1019.0 mb 0.00 in0.0 mm 0.00 in0.0 mm 0.00 in0.0 mm
04:29 AM 55.4°F13.0°C 51.9°F11.1°C 88% 5.0 mph SE8.0 kmh SE 9.0 mph14.5 kmh 30.09 in1019.0 mb 0.00 in0.0 mm 0.00 in0.0 mm 0.00 in0.0 mm
04:45 AM 55.3°F12.9°C 51.8°F11.0°C 88% 3.0 mph SE4.8 kmh SE 6.0 mph9.7 kmh 30.09 in1019.0 mb 0.00 in0.0 mm 0.00 in0.0 mm 0.00 in0.0 mm
04:50 AM 55.4°F13.0°C 52.2°F11.2°C 89% 6.0 mph SE9.7 kmh SE 6.0 mph9.7 kmh 30.09 in1019.0 mb 0.00 in0.0 mm 0.00 in0.0 mm 0.00 in0.0 mm
05:05 AM 55.6°F13.1°C 52.1°F11.2°C 88% 5.0 mph SE8.0 kmh SE 8.0 mph12.9 kmh 30.09 in1019.0 mb 0.00 in0.0 mm 0.00 in0.0 mm 0.00 in0.0 mm
05:10 AM 55.7°F13.2°C 52.2°F11.2°C 88% 4.0 mph SE6.4 kmh SE 9.0 mph14.5 kmh 30.09 in1019.0 mb 0.00 in0.0 mm 0.00 in0.0 mm 0.00 in0.0 mm
05:25 AM 55.8°F13.2°C 52.3°F11.3°C 88% 3.0 mph SE4.8 kmh SE 6.0 mph9.7 kmh 30.09 in1019.0 mb 0.00 in0.0 mm 0.00 in0.0 mm 0.00 in0.0 mm
05:30 AM 55.8°F13.2°C 52.3°F11.3°C 88% 4.0 mph SE6.4 kmh SE 8.0 mph12.9 kmh 30.09 in1019.0 mb 0.00 in0.0 mm 0.00 in0.0 mm 0.00 in0.0 mm
05:45 AM 56.0°F13.3°C 52.5°F11.4°C 88% 2.0 mph SE3.2 kmh SE 6.0 mph9.7 kmh 30.09 in1019.0 mb 0.00 in0.0 mm 0.00 in0.0 mm 0.00 in0.0 mm
05:49 AM 56.1°F13.4°C 52.6°F11.4°C 88% 4.0 mph SE6.4 kmh SE 6.0 mph9.7 kmh 30.09 in1019.0 mb 0.00 in0.0 mm 0.00 in0.0 mm 0.00 in0.0 mm
06:04 AM 56.4°F13.6°C 52.9°F11.6°C 88% 4.0 mph SE6.4 kmh SE 6.0 mph9.7 kmh 30.09 in1019.0 mb 0.00 in0.0 mm 0.00 in0.0 mm 0.00 in0.0 mm
06:10 AM 56.5°F13.6°C 53.0°F11.7°C 88% 3.0 mph SE4.8 kmh SE 4.0 mph6.4 kmh 30.09 in1019.0 mb 0.00 in0.0 mm 0.00 in0.0 mm 0.00 in0.0 mm
06:24 AM 56.8°F13.8°C 53.0°F11.7°C 87% 3.0 mph SE4.8 kmh SE 5.0 mph8.0 kmh 30.10 in1019.3 mb 0.00 in0.0 mm 0.00 in0.0 mm 0.00 in0.0 mm
06:29 AM 56.8°F13.8°C 53.0°F11.7°C 87% 4.0 mph SE6.4 kmh SE 5.0 mph8.0 kmh 30.10 in1019.3 mb 0.00 in0.0 mm 0.00 in0.0 mm 0.00 in0.0 mm
06:45 AM 57.0°F13.9°C 53.2°F11.8°C 87% 5.0 mph SE8.0 kmh SE 8.0 mph12.9 kmh 30.10 in1019.3 mb 0.00 in0.0 mm 0.00 in0.0 mm 0.00 in0.0 mm
06:50 AM 57.1°F13.9°C 53.3°F11.8°C 87% 8.0 mph SE12.9 kmh SE 10.0 mph16.1 kmh 30.10 in1019.3 mb 0.00 in0.0 mm 0.00 in0.0 mm 0.00 in0.0 mm
07:05 AM 57.3°F14.1°C 53.5°F11.9°C 87% 7.0 mph ESE11.3 kmh ESE 8.0 mph12.9 kmh 30.11 in1019.6 mb 0.00 in0.0 mm 0.00 in0.0 mm 0.00 in0.0 mm
07:10 AM 57.5°F14.2°C 53.7°F12.1°C 87% 4.0 mph SE6.4 kmh SE 8.0 mph12.9 kmh 30.11 in1019.6 mb 0.00 in0.0 mm 0.00 in0.0 mm 0.00 in0.0 mm
07:25 AM 58.0°F14.4°C 53.8°F12.1°C 86% 4.0 mph SE6.4 kmh SE 7.0 mph11.3 kmh 30.11 in1019.6 mb 0.00 in0.0 mm 0.00 in0.0 mm 0.00 in0.0 mm
07:30 AM 58.2°F14.6°C 54.0°F12.2°C 86% 6.0 mph ESE9.7 kmh ESE 6.0 mph9.7 kmh 30.11 in1019.6 mb 0.00 in0.0 mm 0.00 in0.0 mm 0.00 in0.0 mm
07:44 AM 58.6°F14.8°C 54.1°F12.3°C 85% 4.0 mph SE6.4 kmh SE 8.0 mph12.9 kmh 30.11 in1019.6 mb 0.00 in0.0 mm 0.00 in0.0 mm 0.00 in0.0 mm
07:49 AM 58.7°F14.8°C 54.2°F12.3°C 85% 7.0 mph SE11.3 kmh SE 9.0 mph14.5 kmh 30.11 in1019.6 mb 0.00 in0.0 mm 0.00 in0.0 mm 0.00 in0.0 mm
08:05 AM 59.4°F15.2°C 54.6°F12.6°C 84% 5.0 mph SE8.0 kmh SE 11.0 mph17.7 kmh 30.11 in1019.6 mb 0.00 in0.0 mm 0.00 in0.0 mm 0.00 in0.0 mm
08:09 AM 59.6°F15.3°C 54.4°F12.4°C 83% 7.0 mph SE11.3 kmh SE 11.0 mph17.7 kmh 30.11 in1019.6 mb 0.00 in0.0 mm 0.00 in0.0 mm 0.00 in0.0 mm
08:25 AM 60.3°F15.7°C 55.1°F12.8°C 83% 2.0 mph SE3.2 kmh SE 7.0 mph11.3 kmh 30.12 in1020.0 mb 0.00 in0.0 mm 0.00 in0.0 mm 0.00 in0.0 mm
08:30 AM 60.5°F15.8°C 55.0°F12.8°C 82% 4.0 mph SSE6.4 kmh SSE 7.0 mph11.3 kmh 30.12 in1020.0 mb 0.00 in0.0 mm 0.00 in0.0 mm 0.00 in0.0 mm
08:45 AM 61.4°F16.3°C 55.5°F13.1°C 81% 5.0 mph S8.0 kmh S 7.0 mph11.3 kmh 30.12 in1020.0 mb 0.00 in0.0 mm 0.00 in0.0 mm 0.00 in0.0 mm
08:50 AM 61.6°F16.4°C 55.4°F13.0°C 80% 3.0 mph SE4.8 kmh SE 3.0 mph4.8 kmh 30.12 in1020.0 mb 0.00 in0.0 mm 0.00 in0.0 mm 0.00 in0.0 mm
09:04 AM 61.5°F16.4°C 55.3°F12.9°C 80% 5.0 mph SE8.0 kmh SE 7.0 mph11.3 kmh 30.12 in1020.0 mb 0.00 in0.0 mm 0.00 in0.0 mm 0.00 in0.0 mm
09:10 AM 61.5°F16.4°C 55.3°F12.9°C 80% 4.0 mph SE6.4 kmh SE 7.0 mph11.3 kmh 30.12 in1020.0 mb 0.00 in0.0 mm 0.00 in0.0 mm 0.00 in0.0 mm
09:25 AM 61.9°F16.6°C 56.0°F13.3°C 81% 5.0 mph SW8.0 kmh SW 7.0 mph11.3 kmh 30.13 in1020.3 mb 0.00 in0.0 mm 0.00 in0.0 mm 0.00 in0.0 mm
09:30 AM 62.1°F16.7°C 55.9°F13.3°C 80% 5.0 mph SW8.0 kmh SW 5.0 mph8.0 kmh 30.13 in1020.3 mb 0.00 in0.0 mm 0.00 in0.0 mm 0.00 in0.0 mm
09:45 AM 62.6°F17.0°C 55.7°F13.2°C 78% 2.0 mph SE3.2 kmh SE 7.0 mph11.3 kmh 30.13 in1020.3 mb 0.00 in0.0 mm 0.00 in0.0 mm 0.00 in0.0 mm
09:49 AM 62.8°F17.1°C 55.9°F13.3°C 78% 2.0 mph SSW3.2 kmh SSW 7.0 mph11.3 kmh 30.13 in1020.3 mb 0.00 in0.0 mm 0.00 in0.0 mm 0.00 in0.0 mm
10:05 AM 63.0°F17.2°C 56.0°F13.3°C 78% 7.0 mph SSW11.3 kmh SSW 9.0 mph14.5 kmh 30.13 in1020.3 mb 0.00 in0.0 mm 0.00 in0.0 mm 0.00 in0.0 mm
10:10 AM 63.0°F17.2°C 55.7°F13.2°C 77% 6.0 mph SW9.7 kmh SW 10.0 mph16.1 kmh 30.13 in1020.3 mb 0.00 in0.0 mm 0.00 in0.0 mm 0.00 in0.0 mm
10:25 AM 63.1°F17.3°C 55.8°F13.2°C 77% 8.0 mph S12.9 kmh S 10.0 mph16.1 kmh 30.13 in1020.3 mb 0.00 in0.0 mm 0.00 in0.0 mm 0.00 in0.0 mm
10:30 AM 63.1°F17.3°C 55.8°F13.2°C 77% 8.0 mph SSW12.9 kmh SSW 10.0 mph16.1 kmh 30.13 in1020.3 mb 0.00 in0.0 mm 0.00 in0.0 mm 0.00 in0.0 mm
10:45 AM 63.4°F17.4°C 56.1°F13.4°C 77% 7.0 mph SW11.3 kmh SW 9.0 mph14.5 kmh 30.13 in1020.3 mb 0.00 in0.0 mm 0.00 in0.0 mm 0.00 in0.0 mm
10:50 AM 63.6°F17.6°C 56.3°F13.5°C 77% 6.0 mph SW9.7 kmh SW 10.0 mph16.1 kmh 30.13 in1020.3 mb 0.00 in0.0 mm 0.00 in0.0 mm 0.00 in0.0 mm
11:04 AM 63.6°F17.6°C 55.9°F13.3°C 76% 6.0 mph SSW9.7 kmh SSW 7.0 mph11.3 kmh 30.13 in1020.3 mb 0.00 in0.0 mm 0.00 in0.0 mm 0.00 in0.0 mm
11:10 AM 63.5°F17.5°C 55.8°F13.2°C 76% 5.0 mph SW8.0 kmh SW 9.0 mph14.5 kmh 30.13 in1020.3 mb 0.00 in0.0 mm 0.00 in0.0 mm 0.00 in0.0 mm
11:25 AM 63.5°F17.5°C 55.8°F13.2°C 76% 7.0 mph SSW11.3 kmh SSW 7.0 mph11.3 kmh 30.13 in1020.3 mb 0.00 in0.0 mm 0.00 in0.0 mm 0.00 in0.0 mm
11:30 AM 63.7°F17.6°C 55.6°F13.1°C 75% 5.0 mph S8.0 kmh S 8.0 mph12.9 kmh 30.13 in1020.3 mb 0.00 in0.0 mm 0.00 in0.0 mm 0.00 in0.0 mm
11:45 AM 64.1°F17.8°C 55.7°F13.2°C 74% 3.0 mph SW4.8 kmh SW 10.0 mph16.1 kmh 30.14 in1020.7 mb 0.00 in0.0 mm 0.00 in0.0 mm 0.00 in0.0 mm
11:50 AM 64.1°F17.8°C 56.0°F13.3°C 75% 6.0 mph SSE9.7 kmh SSE 10.0 mph16.1 kmh 30.14 in1020.7 mb 0.00 in0.0 mm 0.00 in0.0 mm 0.00 in0.0 mm
12:05 PM 64.6°F18.1°C 56.1°F13.4°C 74% 3.0 mph S4.8 kmh S 9.0 mph14.5 kmh 30.14 in1020.7 mb 0.00 in0.0 mm 0.00 in0.0 mm 0.00 in0.0 mm
12:10 PM 64.8°F18.2°C 56.3°F13.5°C 74% 9.0 mph SSW14.5 kmh SSW 9.0 mph14.5 kmh 30.14 in1020.7 mb 0.00 in0.0 mm 0.00 in0.0 mm 0.00 in0.0 mm
12:25 PM 64.9°F18.3°C 56.1°F13.4°C 73% 7.0 mph SW11.3 kmh SW 10.0 mph16.1 kmh 30.14 in1020.7 mb 0.00 in0.0 mm 0.00 in0.0 mm 0.00 in0.0 mm
12:30 PM 65.1°F18.4°C 56.2°F13.4°C 73% 7.0 mph SSW11.3 kmh SSW 10.0 mph16.1 kmh 30.14 in1020.7 mb 0.00 in0.0 mm 0.00 in0.0 mm 0.00 in0.0 mm
12:45 PM 64.9°F18.3°C 56.1°F13.4°C 73% 6.0 mph S9.7 kmh S 9.0 mph14.5 kmh 30.14 in1020.7 mb 0.00 in0.0 mm 0.00 in0.0 mm 0.00 in0.0 mm
12:50 PM 64.9°F18.3°C 56.1°F13.4°C 73% 7.0 mph SSW11.3 kmh SSW 10.0 mph16.1 kmh 30.14 in1020.7 mb 0.00 in0.0 mm 0.00 in0.0 mm 0.00 in0.0 mm
01:05 PM 64.7°F18.2°C 55.9°F13.3°C 73% 3.0 mph S4.8 kmh S 9.0 mph14.5 kmh 30.14 in1020.7 mb 0.00 in0.0 mm 0.00 in0.0 mm 0.00 in0.0 mm
01:10 PM 64.7°F18.2°C 55.9°F13.3°C 73% 3.0 mph S4.8 kmh S 9.0 mph14.5 kmh 30.14 in1020.7 mb 0.00 in0.0 mm 0.00 in0.0 mm 0.00 in0.0 mm
01:25 PM 64.7°F18.2°C 55.5°F13.1°C 72% 6.0 mph S9.7 kmh S 9.0 mph14.5 kmh 30.14 in1020.7 mb 0.00 in0.0 mm 0.00 in0.0 mm 0.00 in0.0 mm
01:29 PM 64.7°F18.2°C 55.9°F13.3°C 73% 9.0 mph SSW14.5 kmh SSW 10.0 mph16.1 kmh 30.14 in1020.7 mb 0.00 in0.0 mm 0.00 in0.0 mm 0.00 in0.0 mm
01:44 PM 64.7°F18.2°C 55.5°F13.1°C 72% 3.0 mph S4.8 kmh S 10.0 mph16.1 kmh 30.14 in1020.7 mb 0.00 in0.0 mm 0.00 in0.0 mm 0.00 in0.0 mm
01:50 PM 64.6°F18.1°C 56.1°F13.4°C 74% 8.0 mph SSW12.9 kmh SSW 10.0 mph16.1 kmh 30.14 in1020.7 mb 0.00 in0.0 mm 0.00 in0.0 mm 0.00 in0.0 mm
02:04 PM 64.6°F18.1°C 55.8°F13.2°C 73% 6.0 mph SSW9.7 kmh SSW 10.0 mph16.1 kmh 30.14 in1020.7 mb 0.00 in0.0 mm 0.00 in0.0 mm 0.00 in0.0 mm
02:10 PM 64.8°F18.2°C 56.0°F13.3°C 73% 5.0 mph SW8.0 kmh SW 10.0 mph16.1 kmh 30.14 in1020.7 mb 0.00 in0.0 mm 0.00 in0.0 mm 0.00 in0.0 mm
02:25 PM 65.3°F18.5°C 56.1°F13.4°C 72% 4.0 mph SSW6.4 kmh SSW 7.0 mph11.3 kmh 30.14 in1020.7 mb 0.00 in0.0 mm 0.00 in0.0 mm 0.00 in0.0 mm
02:29 PM 65.4°F18.6°C 56.2°F13.4°C 72% 4.0 mph S6.4 kmh S 8.0 mph12.9 kmh 30.14 in1020.7 mb 0.00 in0.0 mm 0.00 in0.0 mm 0.00 in0.0 mm
02:45 PM 66.1°F18.9°C 56.4°F13.6°C 71% 8.0 mph SSW12.9 kmh SSW 9.0 mph14.5 kmh 30.14 in1020.7 mb 0.00 in0.0 mm 0.00 in0.0 mm 0.00 in0.0 mm
02:50 PM 66.4°F19.1°C 56.3°F13.5°C 70% 3.0 mph S4.8 kmh S 7.0 mph11.3 kmh 30.14 in1020.7 mb 0.00 in0.0 mm 0.00 in0.0 mm 0.00 in0.0 mm
03:04 PM 67.1°F19.5°C 57.0°F13.9°C 70% 4.0 mph SE6.4 kmh SE 10.0 mph16.1 kmh 30.13 in1020.3 mb 0.00 in0.0 mm 0.00 in0.0 mm 0.00 in0.0 mm
03:10 PM 67.3°F19.6°C 56.4°F13.6°C 68% 6.0 mph S9.7 kmh S 7.0 mph11.3 kmh 30.13 in1020.3 mb 0.00 in0.0 mm 0.00 in0.0 mm 0.00 in0.0 mm
03:25 PM 67.3°F19.6°C 56.4°F13.6°C 68% 6.0 mph SW9.7 kmh SW 11.0 mph17.7 kmh 30.13 in1020.3 mb 0.00 in0.0 mm 0.00 in0.0 mm 0.00 in0.0 mm
03:29 PM 67.3°F19.6°C 56.4°F13.6°C 68% 11.0 mph SW17.7 kmh SW 11.0 mph17.7 kmh 30.13 in1020.3 mb 0.00 in0.0 mm 0.00 in0.0 mm 0.00 in0.0 mm
03:45 PM 67.5°F19.7°C 56.6°F13.7°C 68% 8.0 mph SSW12.9 kmh SSW 11.0 mph17.7 kmh 30.13 in1020.3 mb 0.00 in0.0 mm 0.00 in0.0 mm 0.00 in0.0 mm
03:50 PM 67.5°F19.7°C 56.6°F13.7°C 68% 5.0 mph SW8.0 kmh SW 11.0 mph17.7 kmh 30.13 in1020.3 mb 0.00 in0.0 mm 0.00 in0.0 mm 0.00 in0.0 mm
04:04 PM 67.9°F19.9°C 56.6°F13.7°C 67% 7.0 mph SSW11.3 kmh SSW 10.0 mph16.1 kmh 30.13 in1020.3 mb 0.00 in0.0 mm 0.00 in0.0 mm 0.00 in0.0 mm
04:10 PM 67.8°F19.9°C 56.5°F13.6°C 67% 6.0 mph SW9.7 kmh SW 10.0 mph16.1 kmh 30.12 in1020.0 mb 0.00 in0.0 mm 0.00 in0.0 mm 0.00 in0.0 mm
04:25 PM 68.8°F20.4°C 57.4°F14.1°C 67% 10.0 mph SSW16.1 kmh SSW 11.0 mph17.7 kmh 30.12 in1020.0 mb 0.00 in0.0 mm 0.00 in0.0 mm 0.00 in0.0 mm
04:30 PM 69.1°F20.6°C 57.3°F14.1°C 66% 6.0 mph S9.7 kmh S 12.0 mph19.3 kmh 30.12 in1020.0 mb 0.00 in0.0 mm 0.00 in0.0 mm 0.00 in0.0 mm
04:45 PM 68.4°F20.2°C 57.0°F13.9°C 67% 3.0 mph SSW4.8 kmh SSW 11.0 mph17.7 kmh 30.12 in1020.0 mb 0.00 in0.0 mm 0.00 in0.0 mm 0.00 in0.0 mm
04:50 PM 68.1°F20.1°C 56.7°F13.7°C 67% 6.0 mph S9.7 kmh S 11.0 mph17.7 kmh 30.12 in1020.0 mb 0.00 in0.0 mm 0.00 in0.0 mm 0.00 in0.0 mm
05:05 PM 68.2°F20.1°C 57.3°F14.1°C 68% 4.0 mph SE6.4 kmh SE 9.0 mph14.5 kmh 30.11 in1019.6 mb 0.00 in0.0 mm 0.00 in0.0 mm 0.00 in0.0 mm
05:10 PM 68.4°F20.2°C 56.6°F13.7°C 66% 5.0 mph SW8.0 kmh SW 9.0 mph14.5 kmh 30.11 in1019.6 mb 0.00 in0.0 mm 0.00 in0.0 mm 0.00 in0.0 mm
05:25 PM 68.6°F20.3°C 56.4°F13.6°C 65% 6.0 mph SW9.7 kmh SW 10.0 mph16.1 kmh 30.11 in1019.6 mb 0.00 in0.0 mm 0.00 in0.0 mm 0.00 in0.0 mm
05:30 PM 68.6°F20.3°C 56.8°F13.8°C 66% 3.0 mph SW4.8 kmh SW 10.0 mph16.1 kmh 30.11 in1019.6 mb 0.00 in0.0 mm 0.00 in0.0 mm 0.00 in0.0 mm
05:44 PM 68.8°F20.4°C 56.6°F13.7°C 65% 3.0 mph SSW4.8 kmh SSW 9.0 mph14.5 kmh 30.11 in1019.6 mb 0.00 in0.0 mm 0.00 in0.0 mm 0.00 in0.0 mm
05:50 PM 68.6°F20.3°C 56.8°F13.8°C 66% 2.0 mph S3.2 kmh S 4.0 mph6.4 kmh 30.11 in1019.6 mb 0.00 in0.0 mm 0.00 in0.0 mm 0.00 in0.0 mm
06:04 PM 68.3°F20.2°C 56.5°F13.6°C 66% 5.0 mph SW8.0 kmh SW 9.0 mph14.5 kmh 30.11 in1019.6 mb 0.00 in0.0 mm 0.00 in0.0 mm 0.00 in0.0 mm
06:10 PM 68.5°F20.3°C 56.3°F13.5°C 65% 6.0 mph SSW9.7 kmh SSW 9.0 mph14.5 kmh 30.10 in1019.3 mb 0.00 in0.0 mm 0.00 in0.0 mm 0.00 in0.0 mm
06:25 PM 68.3°F20.2°C 56.1°F13.4°C 65% 5.0 mph SSE8.0 kmh SSE 10.0 mph16.1 kmh 30.10 in1019.3 mb 0.00 in0.0 mm 0.00 in0.0 mm 0.00 in0.0 mm
06:29 PM 68.1°F20.1°C 55.9°F13.3°C 65% 4.0 mph SSW6.4 kmh SSW 10.0 mph16.1 kmh 30.10 in1019.3 mb 0.00 in0.0 mm 0.00 in0.0 mm 0.00 in0.0 mm
06:44 PM 67.8°F19.9°C 56.0°F13.3°C 66% 3.0 mph S4.8 kmh S 8.0 mph12.9 kmh 30.10 in1019.3 mb 0.00 in0.0 mm 0.00 in0.0 mm 0.00 in0.0 mm
06:50 PM 67.9°F19.9°C 56.1°F13.4°C 66% 4.0 mph S6.4 kmh S 4.0 mph6.4 kmh 30.09 in1019.0 mb 0.00 in0.0 mm 0.00 in0.0 mm 0.00 in0.0 mm
07:05 PM 67.1°F19.5°C 55.8°F13.2°C 67% 2.0 mph SSW3.2 kmh SSW 7.0 mph11.3 kmh 30.09 in1019.0 mb 0.00 in0.0 mm 0.00 in0.0 mm 0.00 in0.0 mm
07:10 PM 66.8°F19.3°C 55.5°F13.1°C 67% 3.0 mph S4.8 kmh S 7.0 mph11.3 kmh 30.09 in1019.0 mb 0.00 in0.0 mm 0.00 in0.0 mm 0.00 in0.0 mm
07:25 PM 66.6°F19.2°C 55.3°F12.9°C 67% 5.0 mph SE8.0 kmh SE 8.0 mph12.9 kmh 30.09 in1019.0 mb 0.00 in0.0 mm 0.00 in0.0 mm 0.00 in0.0 mm
07:30 PM 66.6°F19.2°C 55.7°F13.2°C 68% 3.0 mph S4.8 kmh S 8.0 mph12.9 kmh 30.09 in1019.0 mb 0.00 in0.0 mm 0.00 in0.0 mm 0.00 in0.0 mm
07:45 PM 66.2°F19.0°C 55.7°F13.2°C 69% 6.0 mph SSE9.7 kmh SSE 7.0 mph11.3 kmh 30.09 in1019.0 mb 0.00 in0.0 mm 0.00 in0.0 mm 0.00 in0.0 mm
07:49 PM 66.1°F18.9°C 55.2°F12.9°C 68% 6.0 mph ESE9.7 kmh ESE 7.0 mph11.3 kmh 30.09 in1019.0 mb 0.00 in0.0 mm 0.00 in0.0 mm 0.00 in0.0 mm
08:05 PM 65.7°F18.7°C 55.3°F12.9°C 69% 5.0 mph SE8.0 kmh SE 9.0 mph14.5 kmh 30.09 in1019.0 mb 0.00 in0.0 mm 0.00 in0.0 mm 0.00 in0.0 mm
08:10 PM 65.5°F18.6°C 55.5°F13.1°C 70% 7.0 mph SE11.3 kmh SE 9.0 mph14.5 kmh 30.09 in1019.0 mb 0.00 in0.0 mm 0.00 in0.0 mm 0.00 in0.0 mm
08:25 PM 64.9°F18.3°C 55.7°F13.2°C 72% 4.0 mph SE6.4 kmh SE 8.0 mph12.9 kmh 30.09 in1019.0 mb 0.00 in0.0 mm 0.00 in0.0 mm 0.00 in0.0 mm
08:30 PM 64.7°F18.2°C 55.5°F13.1°C 72% 5.0 mph SE8.0 kmh SE 8.0 mph12.9 kmh 30.09 in1019.0 mb 0.00 in0.0 mm 0.00 in0.0 mm 0.00 in0.0 mm
08:44 PM 64.1°F17.8°C 55.3°F12.9°C 73% 6.0 mph ESE9.7 kmh ESE 9.0 mph14.5 kmh 30.09 in1019.0 mb 0.00 in0.0 mm 0.00 in0.0 mm 0.00 in0.0 mm
08:50 PM 63.9°F17.7°C 54.7°F12.6°C 72% 4.0 mph SE6.4 kmh SE 9.0 mph14.5 kmh 30.09 in1019.0 mb 0.00 in0.0 mm 0.00 in0.0 mm 0.00 in0.0 mm
09:04 PM 63.5°F17.5°C 54.7°F12.6°C 73% 6.0 mph SE9.7 kmh SE 8.0 mph12.9 kmh 30.09 in1019.0 mb 0.00 in0.0 mm 0.00 in0.0 mm 0.00 in0.0 mm
09:10 PM 63.4°F17.4°C 55.0°F12.8°C 74% 6.0 mph SE9.7 kmh SE 7.0 mph11.3 kmh 30.09 in1019.0 mb 0.00 in0.0 mm 0.00 in0.0 mm 0.00 in0.0 mm
09:24 PM 63.1°F17.3°C 54.7°F12.6°C 74% 7.0 mph SE11.3 kmh SE 8.0 mph12.9 kmh 30.09 in1019.0 mb 0.00 in0.0 mm 0.00 in0.0 mm 0.00 in0.0 mm
09:29 PM 63.0°F17.2°C 54.6°F12.6°C 74% 4.0 mph SE6.4 kmh SE 8.0 mph12.9 kmh 30.09 in1019.0 mb 0.00 in0.0 mm 0.00 in0.0 mm 0.00 in0.0 mm
09:45 PM 63.0°F17.2°C 55.0°F12.8°C 75% 5.0 mph ESE8.0 kmh ESE 7.0 mph11.3 kmh 30.09 in1019.0 mb 0.00 in0.0 mm 0.00 in0.0 mm 0.00 in0.0 mm
09:50 PM 62.9°F17.2°C 55.2°F12.9°C 76% 5.0 mph SE8.0 kmh SE 9.0 mph14.5 kmh 30.09 in1019.0 mb 0.00 in0.0 mm 0.00 in0.0 mm 0.00 in0.0 mm
10:05 PM 62.4°F16.9°C 55.1°F12.8°C 77% 4.0 mph S6.4 kmh S 8.0 mph12.9 kmh 30.09 in1019.0 mb 0.00 in0.0 mm 0.00 in0.0 mm 0.00 in0.0 mm
10:10 PM 62.3°F16.8°C 55.0°F12.8°C 77% 4.0 mph SE6.4 kmh SE 8.0 mph12.9 kmh 30.09 in1019.0 mb 0.00 in0.0 mm 0.00 in0.0 mm 0.00 in0.0 mm
10:24 PM 61.8°F16.6°C 54.9°F12.7°C 78% 8.0 mph SE12.9 kmh SE 9.0 mph14.5 kmh 30.09 in1019.0 mb 0.00 in0.0 mm 0.00 in0.0 mm 0.00 in0.0 mm
10:30 PM 61.6°F16.4°C 54.7°F12.6°C 78% 5.0 mph SE8.0 kmh SE 9.0 mph14.5 kmh 30.09 in1019.0 mb 0.00 in0.0 mm 0.00 in0.0 mm 0.00 in0.0 mm
10:45 PM 60.8°F16.0°C 53.9°F12.2°C 78% 7.0 mph SE11.3 kmh SE 11.0 mph17.7 kmh 30.09 in1019.0 mb 0.00 in0.0 mm 0.00 in0.0 mm 0.00 in0.0 mm
10:49 PM 60.7°F15.9°C 54.2°F12.3°C 79% 4.0 mph SE6.4 kmh SE 11.0 mph17.7 kmh 30.09 in1019.0 mb 0.00 in0.0 mm 0.00 in0.0 mm 0.00 in0.0 mm
11:05 PM 60.0°F15.6°C 53.5°F11.9°C 79% 3.0 mph SSE4.8 kmh SSE 4.0 mph6.4 kmh 30.09 in1019.0 mb 0.00 in0.0 mm 0.00 in0.0 mm 0.00 in0.0 mm
11:10 PM 59.8°F15.4°C 53.3°F11.8°C 79% 3.0 mph SE4.8 kmh SE 8.0 mph12.9 kmh 30.09 in1019.0 mb 0.00 in0.0 mm 0.00 in0.0 mm 0.00 in0.0 mm
11:25 PM 59.2°F15.1°C 53.0°F11.7°C 80% 6.0 mph E9.7 kmh E 9.0 mph14.5 kmh 30.09 in1019.0 mb 0.00 in0.0 mm 0.00 in0.0 mm 0.00 in0.0 mm
11:29 PM 59.0°F15.0°C 53.2°F11.8°C 81% 4.0 mph SE6.4 kmh SE 9.0 mph14.5 kmh 30.09 in1019.0 mb 0.00 in0.0 mm 0.00 in0.0 mm 0.00 in0.0 mm
11:45 PM 58.6°F14.8°C 52.8°F11.6°C 81% 5.0 mph SE8.0 kmh SE 9.0 mph14.5 kmh 30.09 in1019.0 mb 0.00 in0.0 mm 0.00 in0.0 mm 0.00 in0.0 mm
11:50 PM 58.6°F14.8°C 52.8°F11.6°C 81% 3.0 mph SE4.8 kmh SE 9.0 mph14.5 kmh 30.09 in1019.0 mb 0.00 in0.0 mm 0.00 in0.0 mm 0.00 in0.0 mm